sensor_id;sensor_type;location;lat;lon;timestamp;pressure;altitude;pressure_sealevel;temperature;humidity
32243;BME280;18731;42.830;24.390;2023-04-04T03:00:55;93047.31;;;9.11;85.18
32243;BME280;18731;42.830;24.390;2023-04-04T03:03:20;93038.56;;;9.11;86.23
32243;BME280;18731;42.830;24.390;2023-04-04T03:05:46;93054.84;;;8.86;86.73
32243;BME280;18731;42.830;24.390;2023-04-04T03:08:14;93056.25;;;8.80;86.08
32243;BME280;18731;42.830;24.390;2023-04-04T03:10:40;93071.78;;;8.97;85.77
32243;BME280;18731;42.830;24.390;2023-04-04T03:13:06;93081.00;;;9.03;82.93
32243;BME280;18731;42.830;24.390;2023-04-04T03:15:32;93081.72;;;9.00;85.63
32243;BME280;18731;42.830;24.390;2023-04-04T03:18:01;93077.78;;;8.94;86.58
32243;BME280;18731;42.830;24.390;2023-04-04T03:20:27;93070.28;;;9.00;88.20
32243;BME280;18731;42.830;24.390;2023-04-04T03:22:53;93073.44;;;9.06;88.93
32243;BME280;18731;42.830;24.390;2023-04-04T03:25:19;93072.25;;;9.03;89.08
32243;BME280;18731;42.830;24.390;2023-04-04T03:27:45;93063.66;;;8.90;88.76
32243;BME280;18731;42.830;24.390;2023-04-04T03:30:11;93071.50;;;9.02;86.07
32243;BME280;18731;42.830;24.390;2023-04-04T03:32:38;93071.19;;;9.08;85.60
32243;BME280;18731;42.830;24.390;2023-04-04T03:35:07;93081.66;;;8.97;86.38
32243;BME280;18731;42.830;24.390;2023-04-04T03:37:33;93076.31;;;8.97;89.01
32243;BME280;18731;42.830;24.390;2023-04-04T03:40:00;93075.84;;;8.91;87.30
32243;BME280;18731;42.830;24.390;2023-04-04T03:42:26;93078.16;;;8.93;82.63
32243;BME280;18731;42.830;24.390;2023-04-04T03:44:52;93083.81;;;8.91;86.16
32243;BME280;18731;42.830;24.390;2023-04-04T03:47:18;93076.53;;;8.88;86.37
32243;BME280;18731;42.830;24.390;2023-04-04T03:49:45;93069.41;;;8.92;88.03
32243;BME280;18731;42.830;24.390;2023-04-04T03:52:11;93078.56;;;8.95;89.19
32243;BME280;18731;42.830;24.390;2023-04-04T03:54:37;93079.06;;;9.00;88.85
32243;BME280;18731;42.830;24.390;2023-04-04T03:57:04;93083.13;;;8.94;89.54
32243;BME280;18731;42.830;24.390;2023-04-04T03:59:29;93067.22;;;8.98;90.52
32243;BME280;18731;42.830;24.390;2023-04-04T04:01:55;93084.44;;;9.04;90.40
32243;BME280;18731;42.830;24.390;2023-04-04T04:04:21;93090.13;;;9.02;90.28
32243;BME280;18731;42.830;24.390;2023-04-04T04:06:46;93097.31;;;9.02;90.71
32243;BME280;18731;42.830;24.390;2023-04-04T04:09:13;93092.28;;;8.97;89.87
32243;BME280;18731;42.830;24.390;2023-04-04T04:11:39;93093.63;;;8.87;91.21
32243;BME280;18731;42.830;24.390;2023-04-04T04:14:05;93113.44;;;8.90;89.61
32243;BME280;18731;42.830;24.390;2023-04-04T04:16:31;93113.50;;;8.93;90.89
32243;BME280;18731;42.830;24.390;2023-04-04T04:18:57;93111.19;;;8.92;91.13
32243;BME280;18731;42.830;24.390;2023-04-04T04:21:23;93115.81;;;8.95;90.83
32243;BME280;18731;42.830;24.390;2023-04-04T04:23:50;93124.84;;;8.90;90.84
32243;BME280;18731;42.830;24.390;2023-04-04T04:26:16;93121.91;;;8.95;91.26
32243;BME280;18731;42.830;24.390;2023-04-04T04:28:42;93124.84;;;8.90;89.81
32243;BME280;18731;42.830;24.390;2023-04-04T04:31:08;93119.38;;;8.83;88.28
32243;BME280;18731;42.830;24.390;2023-04-04T04:33:35;93111.63;;;8.94;86.57
32243;BME280;18731;42.830;24.390;2023-04-04T04:36:03;93116.50;;;8.92;89.44
32243;BME280;18731;42.830;24.390;2023-04-04T04:38:30;93091.09;;;8.75;87.01
32243;BME280;18731;42.830;24.390;2023-04-04T04:40:56;93104.88;;;8.81;84.59
32243;BME280;18731;42.830;24.390;2023-04-04T04:43:22;93128.78;;;8.96;86.34
32243;BME280;18731;42.830;24.390;2023-04-04T04:45:48;93124.28;;;9.00;86.47
32243;BME280;18731;42.830;24.390;2023-04-04T04:48:15;93123.16;;;9.01;87.20
32243;BME280;18731;42.830;24.390;2023-04-04T04:50:45;93129.75;;;9.08;88.65
32243;BME280;18731;42.830;24.390;2023-04-04T04:53:12;93137.31;;;9.06;89.06
32243;BME280;18731;42.830;24.390;2023-04-04T04:55:38;93134.72;;;9.09;90.50
32243;BME280;18731;42.830;24.390;2023-04-04T04:58:04;93137.59;;;9.20;88.16
32243;BME280;18731;42.830;24.390;2023-04-04T05:00:31;93139.91;;;9.21;84.62
32243;BME280;18731;42.830;24.390;2023-04-04T05:02:57;93134.56;;;9.21;86.12
32243;BME280;18731;42.830;24.390;2023-04-04T05:05:25;93136.69;;;9.12;88.68
32243;BME280;18731;42.830;24.390;2023-04-04T05:07:51;93130.38;;;9.01;85.07
32243;BME280;18731;42.830;24.390;2023-04-04T05:10:16;93128.41;;;8.98;84.70
32243;BME280;18731;42.830;24.390;2023-04-04T05:12:43;93130.09;;;9.06;86.71
32243;BME280;18731;42.830;24.390;2023-04-04T05:15:10;93134.50;;;9.18;87.08
32243;BME280;18731;42.830;24.390;2023-04-04T05:17:36;93123.84;;;9.18;87.71
32243;BME280;18731;42.830;24.390;2023-04-04T05:20:03;93116.16;;;9.13;88.84
32243;BME280;18731;42.830;24.390;2023-04-04T05:22:28;93123.28;;;9.28;89.22
32243;BME280;18731;42.830;24.390;2023-04-04T05:24:54;93121.03;;;9.30;89.22
32243;BME280;18731;42.830;24.390;2023-04-04T05:27:20;93113.75;;;9.27;90.10
32243;BME280;18731;42.830;24.390;2023-04-04T05:29:46;93117.19;;;9.27;90.44
32243;BME280;18731;42.830;24.390;2023-04-04T05:32:13;93116.00;;;9.25;91.37
32243;BME280;18731;42.830;24.390;2023-04-04T05:34:38;93103.34;;;9.18;90.75
32243;BME280;18731;42.830;24.390;2023-04-04T05:37:04;93123.22;;;9.24;91.11
32243;BME280;18731;42.830;24.390;2023-04-04T05:39:29;93117.69;;;9.14;91.82
32243;BME280;18731;42.830;24.390;2023-04-04T05:41:55;93117.97;;;9.09;91.72
32243;BME280;18731;42.830;24.390;2023-04-04T05:44:21;93113.69;;;9.23;92.03
32243;BME280;18731;42.830;24.390;2023-04-04T05:46:47;93118.81;;;9.32;92.36
32243;BME280;18731;42.830;24.390;2023-04-04T05:49:12;93119.28;;;9.38;90.60
32243;BME280;18731;42.830;24.390;2023-04-04T05:51:38;93118.22;;;9.42;88.88
32243;BME280;18731;42.830;24.390;2023-04-04T05:54:04;93110.78;;;9.51;86.55
32243;BME280;18731;42.830;24.390;2023-04-04T05:56:32;93112.44;;;9.59;85.10
32243;BME280;18731;42.830;24.390;2023-04-04T05:58:58;93122.69;;;9.57;84.71
32243;BME280;18731;42.830;24.390;2023-04-04T06:01:24;93125.59;;;9.72;88.53
32243;BME280;18731;42.830;24.390;2023-04-04T06:03:50;93118.66;;;9.67;88.51
32243;BME280;18731;42.830;24.390;2023-04-04T06:06:16;93106.41;;;9.62;88.48
32243;BME280;18731;42.830;24.390;2023-04-04T06:08:42;93114.81;;;9.64;85.32
32243;BME280;18731;42.830;24.390;2023-04-04T06:11:08;93107.94;;;9.63;86.01
32243;BME280;18731;42.830;24.390;2023-04-04T06:13:34;93104.63;;;9.70;83.50
32243;BME280;18731;42.830;24.390;2023-04-04T06:15:59;93104.03;;;9.80;81.64
32243;BME280;18731;42.830;24.390;2023-04-04T06:18:25;93097.47;;;9.74;83.78
32243;BME280;18731;42.830;24.390;2023-04-04T06:20:51;93115.59;;;9.88;84.00
32243;BME280;18731;42.830;24.390;2023-04-04T06:23:16;93119.19;;;9.99;84.60
32243;BME280;18731;42.830;24.390;2023-04-04T06:25:42;93122.38;;;10.08;82.70
32243;BME280;18731;42.830;24.390;2023-04-04T06:28:08;93127.09;;;10.18;81.97
32243;BME280;18731;42.830;24.390;2023-04-04T06:30:36;93135.25;;;10.25;83.09
32243;BME280;18731;42.830;24.390;2023-04-04T06:33:04;93144.06;;;10.29;83.81
32243;BME280;18731;42.830;24.390;2023-04-04T06:35:30;93144.59;;;10.39;84.24
32243;BME280;18731;42.830;24.390;2023-04-04T06:37:55;93144.41;;;10.51;83.94
32243;BME280;18731;42.830;24.390;2023-04-04T06:40:21;93151.34;;;10.55;83.86
32243;BME280;18731;42.830;24.390;2023-04-04T06:42:48;93152.19;;;10.63;84.25
32243;BME280;18731;42.830;24.390;2023-04-04T06:45:19;93156.00;;;10.62;83.42
32243;BME280;18731;42.830;24.390;2023-04-04T06:47:45;93153.44;;;10.43;83.98
32243;BME280;18731;42.830;24.390;2023-04-04T06:50:11;93163.69;;;10.67;83.40
32243;BME280;18731;42.830;24.390;2023-04-04T06:52:37;93159.03;;;10.60;83.81
32243;BME280;18731;42.830;24.390;2023-04-04T06:55:03;93166.97;;;10.57;84.63
32243;BME280;18731;42.830;24.390;2023-04-04T06:57:29;93152.75;;;10.49;84.99
32243;BME280;18731;42.830;24.390;2023-04-04T06:59:54;93149.59;;;10.40;85.24
32243;BME280;18731;42.830;24.390;2023-04-04T07:02:20;93179.09;;;10.51;85.77
32243;BME280;18731;42.830;24.390;2023-04-04T07:04:46;93173.41;;;10.29;87.30
32243;BME280;18731;42.830;24.390;2023-04-04T07:07:12;93177.31;;;10.36;86.72
32243;BME280;18731;42.830;24.390;2023-04-04T07:09:38;93153.97;;;10.29;84.95
32243;BME280;18731;42.830;24.390;2023-04-04T07:12:04;93176.41;;;10.51;84.80
32243;BME280;18731;42.830;24.390;2023-04-04T07:14:29;93180.22;;;10.50;83.28
32243;BME280;18731;42.830;24.390;2023-04-04T07:16:56;93167.00;;;10.34;83.25
32243;BME280;18731;42.830;24.390;2023-04-04T07:19:22;93180.78;;;10.40;85.14
32243;BME280;18731;42.830;24.390;2023-04-04T07:21:56;93186.72;;;10.52;84.99
32243;BME280;18731;42.830;24.390;2023-04-04T07:24:22;93193.34;;;10.62;86.47
32243;BME280;18731;42.830;24.390;2023-04-04T07:26:47;93192.88;;;10.56;85.07
32243;BME280;18731;42.830;24.390;2023-04-04T07:29:13;93196.06;;;10.66;85.50
32243;BME280;18731;42.830;24.390;2023-04-04T07:31:39;93202.63;;;10.72;85.39
32243;BME280;18731;42.830;24.390;2023-04-04T07:34:05;93199.66;;;10.77;85.14
32243;BME280;18731;42.830;24.390;2023-04-04T07:36:31;93202.38;;;10.80;84.79
32243;BME280;18731;42.830;24.390;2023-04-04T07:38:57;93203.66;;;10.90;84.89
32243;BME280;18731;42.830;24.390;2023-04-04T07:41:22;93187.59;;;10.86;84.10
32243;BME280;18731;42.830;24.390;2023-04-04T07:43:48;93204.22;;;11.03;83.95
32243;BME280;18731;42.830;24.390;2023-04-04T07:46:14;93196.19;;;11.03;83.66
32243;BME280;18731;42.830;24.390;2023-04-04T07:48:40;93202.41;;;11.10;83.53
32243;BME280;18731;42.830;24.390;2023-04-04T07:51:06;93208.56;;;11.14;83.09
32243;BME280;18731;42.830;24.390;2023-04-04T07:53:31;93211.50;;;11.06;82.76
32243;BME280;18731;42.830;24.390;2023-04-04T07:55:57;93203.03;;;11.00;81.96
32243;BME280;18731;42.830;24.390;2023-04-04T07:58:23;93199.97;;;10.98;80.99
32243;BME280;18731;42.830;24.390;2023-04-04T08:00:49;93214.63;;;11.11;81.26
32243;BME280;18731;42.830;24.390;2023-04-04T08:03:14;93208.78;;;11.02;81.99
32243;BME280;18731;42.830;24.390;2023-04-04T08:05:41;93224.13;;;11.09;81.83
32243;BME280;18731;42.830;24.390;2023-04-04T08:08:07;93224.13;;;11.09;81.34
32243;BME280;18731;42.830;24.390;2023-04-04T08:10:33;93228.97;;;11.00;82.09
32243;BME280;18731;42.830;24.390;2023-04-04T08:12:58;93232.41;;;11.00;82.23
32243;BME280;18731;42.830;24.390;2023-04-04T08:15:24;93235.06;;;11.00;82.50
32243;BME280;18731;42.830;24.390;2023-04-04T08:17:50;93214.25;;;10.83;83.23
32243;BME280;18731;42.830;24.390;2023-04-04T08:20:15;93236.31;;;10.80;83.03
32243;BME280;18731;42.830;24.390;2023-04-04T08:22:41;93233.06;;;10.67;83.80
32243;BME280;18731;42.830;24.390;2023-04-04T08:25:08;93245.13;;;10.57;84.55
32243;BME280;18731;42.830;24.390;2023-04-04T08:27:34;93251.47;;;10.49;85.16
32243;BME280;18731;42.830;24.390;2023-04-04T08:29:59;93245.66;;;10.44;85.91
32243;BME280;18731;42.830;24.390;2023-04-04T08:32:28;93252.66;;;10.52;85.93
32243;BME280;18731;42.830;24.390;2023-04-04T08:34:53;93259.25;;;10.39;86.36
32243;BME280;18731;42.830;24.390;2023-04-04T08:37:19;93264.47;;;10.31;86.89
32243;BME280;18731;42.830;24.390;2023-04-04T08:39:45;93264.59;;;10.39;86.43
32243;BME280;18731;42.830;24.390;2023-04-04T08:42:11;93264.59;;;10.39;86.64
32243;BME280;18731;42.830;24.390;2023-04-04T08:44:42;93256.06;;;10.29;86.58
32243;BME280;18731;42.830;24.390;2023-04-04T08:47:10;93259.78;;;10.25;86.53
32243;BME280;18731;42.830;24.390;2023-04-04T08:49:42;93263.38;;;10.13;85.46
32243;BME280;18731;42.830;24.390;2023-04-04T08:52:10;93264.72;;;10.04;86.43
32243;BME280;18731;42.830;24.390;2023-04-04T08:54:38;93270.13;;;9.88;86.60
32243;BME280;18731;42.830;24.390;2023-04-04T08:57:05;93274.22;;;9.82;86.85
32243;BME280;18731;42.830;24.390;2023-04-04T08:59:31;93275.19;;;9.74;87.90
32243;BME280;18731;42.830;24.390;2023-04-04T09:04:36;93280.78;;;9.30;88.02
32243;BME280;18731;42.830;24.390;2023-04-04T09:07:04;93286.38;;;9.25;87.12
32243;BME280;18731;42.830;24.390;2023-04-04T09:09:30;93284.81;;;9.05;85.36
32243;BME280;18731;42.830;24.390;2023-04-04T09:12:00;93288.28;;;8.89;87.50
32243;BME280;18731;42.830;24.390;2023-04-04T09:14:28;93294.97;;;8.83;88.00
32243;BME280;18731;42.830;24.390;2023-04-04T09:16:55;93301.06;;;8.68;87.96
32243;BME280;18731;42.830;24.390;2023-04-04T09:19:21;93303.13;;;8.59;88.34
32243;BME280;18731;42.830;24.390;2023-04-04T09:21:48;93306.91;;;8.42;89.24
32243;BME280;18731;42.830;24.390;2023-04-04T09:24:14;93305.97;;;8.34;88.82
32243;BME280;18731;42.830;24.390;2023-04-04T09:26:49;93312.13;;;8.38;89.68
32243;BME280;18731;42.830;24.390;2023-04-04T09:29:20;93314.38;;;8.36;89.55
32243;BME280;18731;42.830;24.390;2023-04-04T09:31:47;93308.91;;;8.17;88.70
32243;BME280;18731;42.830;24.390;2023-04-04T09:34:15;93323.94;;;8.25;88.09
32243;BME280;18731;42.830;24.390;2023-04-04T09:36:43;93334.38;;;8.18;88.69
32243;BME280;18731;42.830;24.390;2023-04-04T09:39:10;93338.91;;;8.18;88.75
32243;BME280;18731;42.830;24.390;2023-04-04T09:41:37;93343.72;;;8.12;88.35
32243;BME280;18731;42.830;24.390;2023-04-04T09:44:04;93350.22;;;8.15;88.72
32243;BME280;18731;42.830;24.390;2023-04-04T09:46:32;93351.78;;;8.16;88.40
32243;BME280;18731;42.830;24.390;2023-04-04T09:49:00;93337.38;;;8.17;88.62
32243;BME280;18731;42.830;24.390;2023-04-04T09:51:36;93353.91;;;8.38;87.95
32243;BME280;18731;42.830;24.390;2023-04-04T09:54:03;93349.34;;;8.38;86.72
32243;BME280;18731;42.830;24.390;2023-04-04T09:56:34;93364.63;;;8.42;86.70
32243;BME280;18731;42.830;24.390;2023-04-04T09:59:05;93372.34;;;8.47;86.28
32243;BME280;18731;42.830;24.390;2023-04-04T10:01:32;93366.44;;;8.53;86.99
32243;BME280;18731;42.830;24.390;2023-04-04T10:03:58;93376.38;;;8.41;86.79
32243;BME280;18731;42.830;24.390;2023-04-04T10:06:23;93375.00;;;8.47;86.39
32243;BME280;18731;42.830;24.390;2023-04-04T10:08:51;93373.53;;;8.33;85.96
32243;BME280;18731;42.830;24.390;2023-04-04T10:11:31;93381.28;;;8.26;84.80
32243;BME280;18731;42.830;24.390;2023-04-04T10:13:58;93386.84;;;8.21;85.76
32243;BME280;18731;42.830;24.390;2023-04-04T10:16:25;93386.81;;;8.05;85.21
32243;BME280;18731;42.830;24.390;2023-04-04T10:18:51;93399.59;;;7.88;84.65
32243;BME280;18731;42.830;24.390;2023-04-04T10:21:18;93400.59;;;7.83;85.20
32243;BME280;18731;42.830;24.390;2023-04-04T10:23:45;93411.22;;;7.71;84.65
32243;BME280;18731;42.830;24.390;2023-04-04T10:26:12;93415.88;;;7.74;85.04
32243;BME280;18731;42.830;24.390;2023-04-04T10:28:38;93418.66;;;7.65;85.53
32243;BME280;18731;42.830;24.390;2023-04-04T10:31:22;93417.78;;;7.49;86.05
32243;BME280;18731;42.830;24.390;2023-04-04T10:36:22;93422.00;;;7.50;87.51
32243;BME280;18731;42.830;24.390;2023-04-04T10:41:38;93429.28;;;7.53;86.97
32243;BME280;18731;42.830;24.390;2023-04-04T10:44:13;93428.41;;;7.61;85.74
32243;BME280;18731;42.830;24.390;2023-04-04T10:46:42;93436.44;;;7.77;84.87
32243;BME280;18731;42.830;24.390;2023-04-04T10:49:10;93431.91;;;7.78;83.45
32243;BME280;18731;42.830;24.390;2023-04-04T10:51:37;93437.59;;;7.64;82.90
32243;BME280;18731;42.830;24.390;2023-04-04T10:54:03;93442.31;;;7.70;82.68
32243;BME280;18731;42.830;24.390;2023-04-04T10:56:29;93441.66;;;7.73;81.08
32243;BME280;18731;42.830;24.390;2023-04-04T10:59:14;93442.53;;;7.78;80.77
32243;BME280;18731;42.830;24.390;2023-04-04T11:02:01;93443.66;;;7.89;81.96
32243;BME280;18731;42.830;24.390;2023-04-04T11:04:33;93444.63;;;7.96;81.40
32243;BME280;18731;42.830;24.390;2023-04-04T11:09:55;93459.81;;;7.84;78.05
32243;BME280;18731;42.830;24.390;2023-04-04T11:15:14;93461.34;;;7.97;79.12
32243;BME280;18731;42.830;24.390;2023-04-04T11:17:59;93454.94;;;7.86;78.14
32243;BME280;18731;42.830;24.390;2023-04-04T11:20:29;93446.09;;;7.69;77.69
32243;BME280;18731;42.830;24.390;2023-04-04T11:23:08;93466.44;;;7.90;77.23
32243;BME280;18731;42.830;24.390;2023-04-04T11:25:51;93461.38;;;7.85;77.75
32243;BME280;18731;42.830;24.390;2023-04-04T11:42:01;93472.19;;;7.80;76.51
32243;BME280;18731;42.830;24.390;2023-04-04T11:44:30;93474.09;;;7.67;76.40
32243;BME280;18731;42.830;24.390;2023-04-04T11:49:29;93478.19;;;7.77;77.82
32243;BME280;18731;42.830;24.390;2023-04-04T11:51:56;93480.16;;;7.80;78.33
32243;BME280;18731;42.830;24.390;2023-04-04T11:54:22;93479.72;;;7.78;77.06
32243;BME280;18731;42.830;24.390;2023-04-04T11:56:48;93480.97;;;7.80;77.32
32243;BME280;18731;42.830;24.390;2023-04-04T11:59:20;93479.19;;;7.72;75.75
32243;BME280;18731;42.830;24.390;2023-04-04T12:01:47;93489.47;;;7.73;74.84
32243;BME280;18731;42.830;24.390;2023-04-04T12:04:18;93494.34;;;7.59;74.25
32243;BME280;18731;42.830;24.390;2023-04-04T12:06:49;93493.69;;;7.62;75.74
32243;BME280;18731;42.830;24.390;2023-04-04T12:09:19;93485.16;;;7.57;73.79
32243;BME280;18731;42.830;24.390;2023-04-04T12:11:49;93489.69;;;7.56;73.82
32243;BME280;18731;42.830;24.390;2023-04-04T12:14:18;93491.47;;;7.64;74.38
32243;BME280;18731;42.830;24.390;2023-04-04T12:16:47;93478.63;;;7.66;73.87
32243;BME280;18731;42.830;24.390;2023-04-04T12:19:13;93487.16;;;7.84;73.75
32243;BME280;18731;42.830;24.390;2023-04-04T12:21:40;93491.91;;;7.79;72.29
32243;BME280;18731;42.830;24.390;2023-04-04T12:24:07;93498.53;;;7.72;73.78
32243;BME280;18731;42.830;24.390;2023-04-04T12:26:39;93472.88;;;7.64;73.18
32243;BME280;18731;42.830;24.390;2023-04-04T12:29:09;93499.00;;;7.62;73.92
32243;BME280;18731;42.830;24.390;2023-04-04T12:31:37;93497.88;;;7.75;73.86
32243;BME280;18731;42.830;24.390;2023-04-04T12:34:04;93493.44;;;7.80;74.40
32243;BME280;18731;42.830;24.390;2023-04-04T12:36:30;93504.41;;;7.78;71.05
32243;BME280;18731;42.830;24.390;2023-04-04T12:39:08;93501.88;;;7.69;73.01
32243;BME280;18731;42.830;24.390;2023-04-04T12:41:49;93492.34;;;7.44;73.67
32243;BME280;18731;42.830;24.390;2023-04-04T12:44:35;93505.84;;;7.63;72.26
32243;BME280;18731;42.830;24.390;2023-04-04T12:47:03;93502.75;;;7.73;73.41
32243;BME280;18731;42.830;24.390;2023-04-04T12:49:44;93507.19;;;7.82;71.38
32243;BME280;18731;42.830;24.390;2023-04-04T12:52:25;93492.91;;;7.74;71.51
32243;BME280;18731;42.830;24.390;2023-04-04T12:54:51;93492.78;;;7.58;72.48
32243;BME280;18731;42.830;24.390;2023-04-04T12:57:19;93521.13;;;7.66;70.72
32243;BME280;18731;42.830;24.390;2023-04-04T12:59:46;93518.47;;;7.54;70.29
32243;BME280;18731;42.830;24.390;2023-04-04T13:02:13;93509.38;;;7.31;72.17
32243;BME280;18731;42.830;24.390;2023-04-04T13:04:40;93522.09;;;7.25;72.01
32243;BME280;18731;42.830;24.390;2023-04-04T13:07:26;93528.59;;;7.16;71.71
32243;BME280;18731;42.830;24.390;2023-04-04T13:09:58;93530.16;;;7.17;72.02
32243;BME280;18731;42.830;24.390;2023-04-04T13:12:25;93527.22;;;6.97;72.27
32243;BME280;18731;42.830;24.390;2023-04-04T13:15:02;93534.44;;;7.09;72.89
32243;BME280;18731;42.830;24.390;2023-04-04T13:17:43;93541.81;;;6.91;72.42
32243;BME280;18731;42.830;24.390;2023-04-04T13:20:10;93539.41;;;6.98;73.06
32243;BME280;18731;42.830;24.390;2023-04-04T13:22:37;93546.25;;;6.99;70.70
32243;BME280;18731;42.830;24.390;2023-04-04T13:25:06;93557.72;;;6.91;71.75
32243;BME280;18731;42.830;24.390;2023-04-04T13:27:33;93556.91;;;6.78;73.03
32243;BME280;18731;42.830;24.390;2023-04-04T13:29:59;93547.66;;;6.85;73.57
32243;BME280;18731;42.830;24.390;2023-04-04T13:32:25;93554.66;;;6.68;71.78
32243;BME280;18731;42.830;24.390;2023-04-04T13:34:50;93569.59;;;6.73;71.84
32243;BME280;18731;42.830;24.390;2023-04-04T13:37:16;93573.03;;;6.73;73.43
32243;BME280;18731;42.830;24.390;2023-04-04T13:39:41;93570.75;;;6.63;72.77
32243;BME280;18731;42.830;24.390;2023-04-04T13:42:07;93578.34;;;6.53;73.48
32243;BME280;18731;42.830;24.390;2023-04-04T13:44:33;93582.03;;;6.39;72.80
32243;BME280;18731;42.830;24.390;2023-04-04T13:46:58;93585.78;;;6.38;74.27
32243;BME280;18731;42.830;24.390;2023-04-04T13:49:24;93591.72;;;6.35;74.00
32243;BME280;18731;42.830;24.390;2023-04-04T13:51:50;93592.16;;;6.37;72.67
32243;BME280;18731;42.830;24.390;2023-04-04T13:54:16;93580.47;;;6.38;72.80
32243;BME280;18731;42.830;24.390;2023-04-04T13:56:41;93590.16;;;6.34;74.50
32243;BME280;18731;42.830;24.390;2023-04-04T13:59:07;93595.84;;;6.24;73.57
32243;BME280;18731;42.830;24.390;2023-04-04T14:01:33;93596.13;;;6.31;74.33
32243;BME280;18731;42.830;24.390;2023-04-04T14:03:58;93591.94;;;6.01;74.88
32243;BME280;18731;42.830;24.390;2023-04-04T14:06:24;93600.97;;;6.00;75.16
32243;BME280;18731;42.830;24.390;2023-04-04T14:08:51;93583.59;;;5.81;75.14
32243;BME280;18731;42.830;24.390;2023-04-04T14:11:17;93601.94;;;5.87;74.55
32243;BME280;18731;42.830;24.390;2023-04-04T14:13:43;93589.41;;;5.75;75.49
32243;BME280;18731;42.830;24.390;2023-04-04T14:16:10;93601.63;;;5.97;76.24
32243;BME280;18731;42.830;24.390;2023-04-04T14:18:36;93582.31;;;5.96;74.75
32243;BME280;18731;42.830;24.390;2023-04-04T14:21:02;93595.59;;;6.17;74.28
32243;BME280;18731;42.830;24.390;2023-04-04T14:23:28;93592.47;;;6.15;73.96
32243;BME280;18731;42.830;24.390;2023-04-04T14:25:57;93607.28;;;6.16;74.69
32243;BME280;18731;42.830;24.390;2023-04-04T14:28:22;93608.66;;;5.93;74.84
32243;BME280;18731;42.830;24.390;2023-04-04T14:30:49;93609.38;;;6.02;73.21
32243;BME280;18731;42.830;24.390;2023-04-04T14:33:17;93621.72;;;5.98;72.45
32243;BME280;18731;42.830;24.390;2023-04-04T14:35:43;93625.91;;;5.99;74.33
32243;BME280;18731;42.830;24.390;2023-04-04T14:38:09;93626.19;;;6.06;74.81
32243;BME280;18731;42.830;24.390;2023-04-04T14:40:35;93639.63;;;6.01;74.66
32243;BME280;18731;42.830;24.390;2023-04-04T14:43:01;93624.69;;;5.88;75.28
32243;BME280;18731;42.830;24.390;2023-04-04T14:45:26;93649.94;;;5.94;74.42
32243;BME280;18731;42.830;24.390;2023-04-04T14:47:56;93649.97;;;5.76;74.66
32243;BME280;18731;42.830;24.390;2023-04-04T14:50:22;93648.13;;;5.68;75.27
32243;BME280;18731;42.830;24.390;2023-04-04T14:52:47;93644.16;;;5.45;75.96
32243;BME280;18731;42.830;24.390;2023-04-04T14:55:17;93655.78;;;5.61;76.34
32243;BME280;18731;42.830;24.390;2023-04-04T14:57:43;93659.50;;;5.69;76.51
32243;BME280;18731;42.830;24.390;2023-04-04T15:00:13;93653.78;;;5.58;76.63
32243;BME280;18731;42.830;24.390;2023-04-04T15:02:40;93661.81;;;5.70;75.89
32243;BME280;18731;42.830;24.390;2023-04-04T15:05:06;93650.66;;;5.56;77.54
32243;BME280;18731;42.830;24.390;2023-04-04T15:07:32;93669.03;;;5.61;78.71
32243;BME280;18731;42.830;24.390;2023-04-04T15:09:57;93666.19;;;5.66;78.89
32243;BME280;18731;42.830;24.390;2023-04-04T15:12:23;93678.06;;;5.60;76.66
32243;BME280;18731;42.830;24.390;2023-04-04T15:14:49;93679.47;;;5.58;79.33
32243;BME280;18731;42.830;24.390;2023-04-04T15:17:14;93674.94;;;5.58;77.99
32243;BME280;18731;42.830;24.390;2023-04-04T15:19:40;93676.22;;;5.52;78.30
32243;BME280;18731;42.830;24.390;2023-04-04T15:22:06;93677.41;;;5.63;77.63
32243;BME280;18731;42.830;24.390;2023-04-04T15:24:32;93683.81;;;5.62;77.28
32243;BME280;18731;42.830;24.390;2023-04-04T15:26:57;93683.38;;;5.43;77.59
32243;BME280;18731;42.830;24.390;2023-04-04T15:29:23;93682.78;;;5.29;80.69
32243;BME280;18731;42.830;24.390;2023-04-04T15:31:48;93680.00;;;4.99;81.15
32243;BME280;18731;42.830;24.390;2023-04-04T15:34:14;93688.84;;;5.12;80.39
32243;BME280;18731;42.830;24.390;2023-04-04T15:36:40;93704.91;;;5.24;79.52
32243;BME280;18731;42.830;24.390;2023-04-04T15:39:07;93705.50;;;5.30;79.96
32243;BME280;18731;42.830;24.390;2023-04-04T15:41:35;93716.38;;;5.20;79.90
32243;BME280;18731;42.830;24.390;2023-04-04T15:44:01;93723.41;;;5.33;80.61
32243;BME280;18731;42.830;24.390;2023-04-04T15:46:26;93703.34;;;5.32;80.47
32243;BME280;18731;42.830;24.390;2023-04-04T15:48:52;93732.28;;;5.37;79.83
32243;BME280;18731;42.830;24.390;2023-04-04T15:51:19;93704.75;;;5.21;80.12
32243;BME280;18731;42.830;24.390;2023-04-04T15:53:45;93729.94;;;5.27;80.93
32243;BME280;18731;42.830;24.390;2023-04-04T15:56:11;93709.41;;;5.24;81.29
32243;BME280;18731;42.830;24.390;2023-04-04T15:58:38;93723.56;;;5.45;80.88
32243;BME280;18731;42.830;24.390;2023-04-04T16:01:05;93715.31;;;5.38;81.43
32243;BME280;18731;42.830;24.390;2023-04-04T16:03:31;93727.59;;;5.42;81.64
32243;BME280;18731;42.830;24.390;2023-04-04T16:05:57;93730.69;;;5.53;81.43
32243;BME280;18731;42.830;24.390;2023-04-04T16:08:22;93723.22;;;5.46;81.31
32243;BME280;18731;42.830;24.390;2023-04-04T16:10:49;93742.41;;;5.26;81.26
32243;BME280;18731;42.830;24.390;2023-04-04T16:13:15;93738.50;;;5.24;81.74
32243;BME280;18731;42.830;24.390;2023-04-04T16:15:40;93738.66;;;5.27;82.77
32243;BME280;18731;42.830;24.390;2023-04-04T16:18:06;93745.34;;;5.25;81.90
32243;BME280;18731;42.830;24.390;2023-04-04T16:20:33;93745.78;;;5.18;82.12
32243;BME280;18731;42.830;24.390;2023-04-04T16:22:59;93751.59;;;5.20;82.36
32243;BME280;18731;42.830;24.390;2023-04-04T16:25:25;93748.91;;;5.03;82.00
32243;BME280;18731;42.830;24.390;2023-04-04T16:27:50;93749.50;;;4.82;82.53